createdAt,value
2023-01-08T00:02:05.194Z,3.13
2023-01-08T00:04:37.604Z,3.17
2023-01-08T00:07:07.429Z,3.31
2023-01-08T00:09:37.677Z,3.16
2023-01-08T00:12:08.025Z,3.17
2023-01-08T00:14:37.914Z,3.15
2023-01-08T00:17:08.647Z,3.17
2023-01-08T00:19:42.491Z,3.03
2023-01-08T00:22:13.088Z,2.61
2023-01-08T00:24:42.911Z,2.80
2023-01-08T00:27:12.749Z,2.99
2023-01-08T00:29:42.712Z,3.08
2023-01-08T00:32:12.557Z,3.17
2023-01-08T00:34:45.003Z,3.00
2023-01-08T00:37:15.172Z,2.69
2023-01-08T00:39:44.982Z,3.06
2023-01-08T00:42:15.945Z,3.23
2023-01-08T00:44:45.786Z,3.25
2023-01-08T00:47:15.935Z,3.31
2023-01-08T00:49:48.430Z,3.38
2023-01-08T00:52:18.272Z,3.44
2023-01-08T00:54:48.090Z,3.45
2023-01-08T00:57:18.314Z,3.39
2023-01-08T00:59:48.705Z,3.32
2023-01-08T01:02:19.017Z,3.39
2023-01-08T01:04:51.512Z,3.34
2023-01-08T01:07:21.428Z,3.32
2023-01-08T01:09:51.295Z,3.35
2023-01-08T01:12:21.478Z,3.35
2023-01-08T01:14:51.371Z,3.37
2023-01-08T01:17:21.315Z,3.36
2023-01-08T01:19:53.785Z,3.31
2023-01-08T01:22:24.017Z,3.32
2023-01-08T01:24:53.815Z,3.24
2023-01-08T01:27:23.685Z,3.13
2023-01-08T01:29:53.888Z,2.87
2023-01-08T01:32:23.783Z,2.81
2023-01-08T01:34:56.304Z,2.74
2023-01-08T01:37:26.139Z,2.87
2023-01-08T01:39:56.403Z,3.05
2023-01-08T01:42:38.888Z,3.00
2023-01-08T01:45:21.264Z,2.94
2023-01-08T01:47:57.899Z,3.04
2023-01-08T01:50:36.083Z,2.72
2023-01-08T01:53:11.945Z,2.76
2023-01-08T01:55:45.892Z,2.82
2023-01-08T01:58:18.684Z,2.67
2023-01-08T02:00:49.690Z,2.90
2023-01-08T02:03:25.076Z,2.91
2023-01-08T02:06:03.172Z,2.93
2023-01-08T02:08:44.376Z,2.95
2023-01-08T02:11:22.683Z,2.96
2023-01-08T02:14:01.775Z,2.82
2023-01-08T02:16:42.492Z,2.88
2023-01-08T02:19:25.647Z,2.95
2023-01-08T02:22:12.425Z,2.89
2023-01-08T02:24:56.242Z,2.84
2023-01-08T02:27:34.367Z,2.91
2023-01-08T02:30:07.769Z,2.87
2023-01-08T02:32:41.846Z,2.91
2023-01-08T02:35:13.472Z,2.87
2023-01-08T02:37:43.981Z,2.89
2023-01-08T02:40:24.008Z,2.87
2023-01-08T02:43:03.331Z,2.71
2023-01-08T02:45:42.082Z,2.73
2023-01-08T02:48:15.818Z,2.74
2023-01-08T02:50:51.992Z,2.52
2023-01-08T02:53:26.909Z,2.60
2023-01-08T02:56:02.568Z,2.48
2023-01-08T02:58:38.806Z,2.57
2023-01-08T03:01:13.606Z,2.62
2023-01-08T03:03:49.702Z,2.63
2023-01-08T03:06:22.843Z,2.64
2023-01-08T03:08:56.606Z,2.65
2023-01-08T03:11:31.892Z,2.43
2023-01-08T03:14:13.299Z,2.21
2023-01-08T03:16:50.629Z,2.37
2023-01-08T03:19:24.932Z,2.49
2023-01-08T03:21:55.798Z,2.46
2023-01-08T03:24:29.657Z,2.48
2023-01-08T03:27:03.558Z,2.42
2023-01-08T03:29:39.954Z,2.40
2023-01-08T03:32:17.342Z,2.38
2023-01-08T03:34:51.219Z,2.44
2023-01-08T03:37:29.381Z,2.45
2023-01-08T03:40:06.510Z,2.29
2023-01-08T03:42:36.911Z,2.18
2023-01-08T03:45:11.261Z,2.20
2023-01-08T03:47:44.439Z,2.32
2023-01-08T03:50:22.062Z,2.09
2023-01-08T03:52:52.299Z,2.10
2023-01-08T03:55:24.618Z,2.13
2023-01-08T03:57:56.034Z,2.19
2023-01-08T04:00:31.393Z,2.19
2023-01-08T04:03:01.318Z,2.23
2023-01-08T04:05:31.138Z,2.16
2023-01-08T04:08:01.579Z,2.19
2023-01-08T04:10:31.738Z,2.17
2023-01-08T04:13:01.544Z,2.08
2023-01-08T04:15:34.511Z,2.02
2023-01-08T04:18:04.484Z,1.91
2023-01-08T04:20:34.258Z,1.95
2023-01-08T04:23:04.584Z,1.94
2023-01-08T04:25:34.457Z,2.12
2023-01-08T04:28:04.318Z,2.21
2023-01-08T04:30:36.753Z,2.24
2023-01-08T04:33:06.838Z,2.22
2023-01-08T04:35:36.941Z,2.29
2023-01-08T04:38:09.849Z,1.89
2023-01-08T04:40:40.679Z,1.75
2023-01-08T04:43:10.895Z,2.01
2023-01-08T04:45:43.295Z,1.95
2023-01-08T04:48:13.343Z,1.87
2023-01-08T04:50:43.344Z,1.82
2023-01-08T04:53:13.112Z,1.82
2023-01-08T04:55:42.881Z,1.84
2023-01-08T04:58:12.896Z,1.85
2023-01-08T05:00:45.503Z,1.90
2023-01-08T05:03:15.971Z,2.10
2023-01-08T05:05:45.765Z,2.15
2023-01-08T05:08:15.627Z,2.12
2023-01-08T05:10:48.004Z,2.01
2023-01-08T05:13:18.348Z,2.07
2023-01-08T05:15:50.725Z,2.03
2023-01-08T05:18:20.826Z,1.98
2023-01-08T05:20:50.642Z,2.07
2023-01-08T05:23:21.729Z,2.19
2023-01-08T05:25:53.991Z,2.12
2023-01-08T05:28:23.766Z,2.12
2023-01-08T05:30:57.084Z,2.02
2023-01-08T05:33:28.276Z,2.01
2023-01-08T05:35:59.671Z,2.03
2023-01-08T05:38:29.581Z,2.05
2023-01-08T05:40:59.322Z,2.08
2023-01-08T05:43:29.407Z,2.17
2023-01-08T05:46:07.207Z,2.27
2023-01-08T05:48:39.170Z,2.26
2023-01-08T05:51:11.315Z,2.17
2023-01-08T05:53:41.838Z,2.13
2023-01-08T05:56:15.314Z,2.30
2023-01-08T05:58:45.136Z,2.33
2023-01-08T06:01:18.710Z,2.40
2023-01-08T06:03:48.742Z,2.35
2023-01-08T06:06:18.829Z,2.34
2023-01-08T06:08:51.794Z,2.35
2023-01-08T06:11:23.318Z,2.39
2023-01-08T06:13:54.874Z,2.43
2023-01-08T06:16:29.818Z,2.56
2023-01-08T06:19:00.553Z,2.57
2023-01-08T06:21:30.418Z,2.61
2023-01-08T06:24:00.285Z,2.65
2023-01-08T06:26:31.599Z,2.68
2023-01-08T06:29:03.791Z,2.66
2023-01-08T06:31:36.336Z,2.67
2023-01-08T06:34:06.578Z,2.67
2023-01-08T06:36:36.471Z,2.69
2023-01-08T06:39:10.023Z,2.64
2023-01-08T06:41:39.921Z,2.63
2023-01-08T06:44:09.851Z,2.72
2023-01-08T06:46:45.050Z,2.88
2023-01-08T06:49:15.298Z,2.87
2023-01-08T06:51:45.396Z,2.90
2023-01-08T06:54:15.172Z,2.98
2023-01-08T06:56:53.234Z,2.99
2023-01-08T06:59:23.802Z,2.99
2023-01-08T07:01:56.312Z,2.90
2023-01-08T07:04:26.764Z,2.93
2023-01-08T07:06:57.008Z,2.86
2023-01-08T07:09:26.845Z,2.92
2023-01-08T07:11:56.860Z,3.02
2023-01-08T07:14:26.666Z,3.28
2023-01-08T07:16:59.323Z,3.35
2023-01-08T07:19:29.202Z,3.45
2023-01-08T07:21:59.098Z,3.54
2023-01-08T07:24:28.859Z,3.69
2023-01-08T07:26:59.185Z,3.68
2023-01-08T07:29:29.537Z,3.91
2023-01-08T07:32:01.876Z,3.93
2023-01-08T07:34:32.748Z,3.94
2023-01-08T07:37:02.798Z,4.03
2023-01-08T07:39:32.712Z,4.02
2023-01-08T07:42:02.758Z,4.05
2023-01-08T07:44:32.933Z,4.07
2023-01-08T07:47:05.415Z,4.07
2023-01-08T07:49:35.610Z,4.12
2023-01-08T07:52:05.369Z,4.32
2023-01-08T07:54:35.513Z,4.28
2023-01-08T07:57:05.828Z,4.22
2023-01-08T07:59:35.728Z,4.54
2023-01-08T08:02:08.317Z,4.66
2023-01-08T08:04:38.399Z,4.75
2023-01-08T08:07:08.342Z,4.68
2023-01-08T08:09:38.119Z,4.69
2023-01-08T08:12:08.345Z,4.66
2023-01-08T08:14:38.375Z,4.87
2023-01-08T08:17:11.226Z,4.90
2023-01-08T08:19:43.777Z,5.14
2023-01-08T08:22:13.614Z,5.49
2023-01-08T08:24:43.758Z,5.77
2023-01-08T08:27:13.714Z,5.70
2023-01-08T08:29:43.551Z,5.76
2023-01-08T08:32:16.124Z,6.14
2023-01-08T08:34:45.897Z,6.08
2023-01-08T08:37:16.031Z,6.40
2023-01-08T08:39:46.001Z,6.38
2023-01-08T08:42:15.932Z,6.45
2023-01-08T08:44:45.807Z,6.90
2023-01-08T08:47:18.489Z,7.00
2023-01-08T08:49:48.380Z,6.74
2023-01-08T08:52:18.188Z,6.68
2023-01-08T08:54:48.137Z,7.02
2023-01-08T08:57:18.317Z,7.36
2023-01-08T08:59:48.439Z,8.25
2023-01-08T09:02:21.411Z,8.69
2023-01-08T09:04:51.420Z,8.25
2023-01-08T09:07:21.333Z,8.16
2023-01-08T09:09:51.545Z,8.20
2023-01-08T09:12:24.844Z,8.37
2023-01-08T09:14:55.245Z,8.10
2023-01-08T09:17:28.580Z,8.16
2023-01-08T09:19:58.352Z,7.74
2023-01-08T09:22:28.551Z,7.80
2023-01-08T09:24:58.340Z,7.76
2023-01-08T09:27:28.165Z,7.81
2023-01-08T09:29:58.283Z,7.99
2023-01-08T09:32:30.727Z,8.30
2023-01-08T09:35:00.896Z,8.44
2023-01-08T09:37:30.937Z,8.94
2023-01-08T09:40:02.904Z,8.66
2023-01-08T09:42:36.111Z,10.87
2023-01-08T09:45:06.760Z,11.33
2023-01-08T09:47:45.719Z,12.88
2023-01-08T09:50:17.166Z,13.83
2023-01-08T09:52:47.170Z,12.66
2023-01-08T09:55:19.572Z,13.74
2023-01-08T09:57:50.748Z,12.74
2023-01-08T10:00:27.456Z,16.16
2023-01-08T10:03:01.962Z,14.22
2023-01-08T10:05:33.723Z,12.65
2023-01-08T10:08:04.193Z,12.58
2023-01-08T10:10:35.826Z,14.26
2023-01-08T10:13:06.266Z,14.20
2023-01-08T10:15:36.338Z,13.74
2023-01-08T10:18:14.435Z,14.29
2023-01-08T10:20:44.420Z,13.82
2023-01-08T10:23:17.306Z,14.95
2023-01-08T10:25:53.269Z,14.72
2023-01-08T10:28:26.828Z,13.08
2023-01-08T10:31:03.289Z,13.58
2023-01-08T10:33:46.689Z,11.79
2023-01-08T10:36:20.769Z,11.86
2023-01-08T10:38:56.047Z,11.12
2023-01-08T10:41:27.201Z,10.11
2023-01-08T10:44:01.485Z,10.07
2023-01-08T10:46:36.635Z,10.25
2023-01-08T10:49:18.753Z,9.74
2023-01-08T10:51:53.587Z,9.18
2023-01-08T10:54:35.653Z,9.28
2023-01-08T10:57:05.915Z,9.26
2023-01-08T10:59:39.532Z,9.12
2023-01-08T11:02:29.031Z,8.89
2023-01-08T11:05:04.740Z,8.75
2023-01-08T11:07:36.562Z,8.92
2023-01-08T11:10:08.904Z,8.83
2023-01-08T11:12:41.805Z,8.88
2023-01-08T11:15:31.737Z,8.43
2023-01-08T11:18:21.275Z,8.35
2023-01-08T11:20:56.420Z,8.22
2023-01-08T11:23:30.463Z,7.91
2023-01-08T11:26:09.317Z,8.21
2023-01-08T11:29:02.009Z,8.16
2023-01-08T11:31:44.708Z,8.34
2023-01-08T11:34:22.418Z,8.63
2023-01-08T11:37:02.271Z,8.41
2023-01-08T11:39:32.126Z,8.63
2023-01-08T11:42:20.827Z,8.81
2023-01-08T11:45:08.433Z,9.12
2023-01-08T11:47:55.305Z,8.68
2023-01-08T11:50:31.543Z,8.85
2023-01-08T11:53:20.176Z,8.99
2023-01-08T11:56:00.772Z,9.05
2023-01-08T11:58:49.416Z,9.09
2023-01-08T12:01:35.284Z,9.07
2023-01-08T12:04:32.317Z,9.06
2023-01-08T12:07:16.783Z,9.06
2023-01-08T12:09:58.646Z,8.99
2023-01-08T12:12:50.209Z,8.99
2023-01-08T12:15:29.721Z,8.93
2023-01-08T12:18:20.807Z,8.90
2023-01-08T12:21:02.234Z,8.94
2023-01-08T12:23:51.926Z,8.95
2023-01-08T12:26:32.320Z,8.91
2023-01-08T12:29:22.065Z,8.77
2023-01-08T12:32:10.862Z,8.80
2023-01-08T12:34:53.753Z,8.75
2023-01-08T12:37:30.265Z,8.62
2023-01-08T12:40:07.703Z,8.70
2023-01-08T12:42:50.306Z,8.72
2023-01-08T12:45:30.458Z,8.60
2023-01-08T12:48:10.858Z,8.59
2023-01-08T12:51:04.571Z,8.48
2023-01-08T12:53:52.395Z,8.56
2023-01-08T12:56:33.715Z,8.62
2023-01-08T12:59:19.879Z,8.67
2023-01-08T13:01:55.856Z,8.65
2023-01-08T13:04:26.006Z,8.71
2023-01-08T13:07:03.835Z,8.72
2023-01-08T13:09:35.828Z,8.67
2023-01-08T13:12:06.055Z,8.68
2023-01-08T13:14:54.929Z,8.75
2023-01-08T13:17:27.019Z,8.80
2023-01-08T13:20:02.179Z,8.57
2023-01-08T13:22:36.381Z,8.63
2023-01-08T13:25:34.261Z,8.67
2023-01-08T13:28:20.360Z,8.63
2023-01-08T13:30:56.517Z,8.72
2023-01-08T13:33:30.560Z,8.66
2023-01-08T13:36:22.261Z,8.52
2023-01-08T13:39:08.011Z,8.39
2023-01-08T13:41:41.453Z,8.30
2023-01-08T13:44:26.295Z,8.33
2023-01-08T13:47:02.987Z,8.37
2023-01-08T13:49:39.306Z,8.34
2023-01-08T13:52:09.907Z,8.37
2023-01-08T13:54:46.313Z,8.30
2023-01-08T13:57:20.850Z,8.26
2023-01-08T13:59:57.710Z,8.38
2023-01-08T14:02:33.715Z,8.41
2023-01-08T14:05:15.129Z,8.35
2023-01-08T14:07:47.133Z,8.41
2023-01-08T14:10:18.464Z,8.33
2023-01-08T14:12:49.738Z,8.34
2023-01-08T14:15:27.046Z,8.40
2023-01-08T14:18:01.434Z,8.49
2023-01-08T14:20:37.256Z,8.57
2023-01-08T14:23:14.888Z,8.55
2023-01-08T14:25:45.274Z,8.44
2023-01-08T14:28:20.228Z,8.44
2023-01-08T14:30:51.742Z,8.55
2023-01-08T14:33:30.015Z,8.50
2023-01-08T14:36:01.697Z,8.56
2023-01-08T14:38:32.519Z,8.53
2023-01-08T14:41:07.118Z,8.41
2023-01-08T14:43:45.120Z,8.44
2023-01-08T14:46:24.129Z,8.48
2023-01-08T14:48:58.154Z,8.51
2023-01-08T14:51:32.277Z,8.46
2023-01-08T14:54:08.554Z,8.41
2023-01-08T14:56:39.362Z,8.42
2023-01-08T14:59:13.252Z,8.44
2023-01-08T15:01:43.528Z,8.35
2023-01-08T15:04:22.016Z,8.38
2023-01-08T15:06:53.667Z,8.44
2023-01-08T15:09:25.746Z,8.39
2023-01-08T15:11:58.776Z,8.42
2023-01-08T15:14:31.334Z,8.41
2023-01-08T15:17:11.470Z,8.42
2023-01-08T15:19:50.868Z,8.43
2023-01-08T15:22:24.358Z,8.33
2023-01-08T15:25:01.247Z,8.25
2023-01-08T15:27:36.924Z,8.17
2023-01-08T15:30:10.300Z,8.20
2023-01-08T15:32:40.686Z,8.20
2023-01-08T15:35:20.522Z,8.21
2023-01-08T15:37:52.713Z,8.10
2023-01-08T15:40:23.025Z,8.20
2023-01-08T15:43:05.417Z,8.18
2023-01-08T15:45:36.000Z,8.15
2023-01-08T15:48:06.812Z,8.12
2023-01-08T15:50:42.415Z,8.09
2023-01-08T15:53:23.344Z,7.99
2023-01-08T15:55:53.761Z,7.75
2023-01-08T15:58:24.911Z,7.65
2023-01-08T16:00:54.823Z,7.62
2023-01-08T16:03:25.853Z,7.73
2023-01-08T16:05:58.265Z,7.72
2023-01-08T16:08:28.452Z,7.56
2023-01-08T16:10:58.745Z,7.46
2023-01-08T16:13:28.593Z,7.51
2023-01-08T16:15:58.951Z,7.50
2023-01-08T16:18:28.787Z,7.49
2023-01-08T16:21:05.185Z,7.48
2023-01-08T16:23:36.843Z,7.93
2023-01-08T16:26:09.022Z,7.61
2023-01-08T16:28:39.311Z,7.51
2023-01-08T16:31:09.942Z,7.42
2023-01-08T16:33:40.821Z,7.14
2023-01-08T16:36:13.863Z,7.16
2023-01-08T16:38:43.884Z,7.23
2023-01-08T16:41:13.748Z,7.03
2023-01-08T16:43:45.719Z,7.07
2023-01-08T16:46:18.054Z,7.07
2023-01-08T16:48:48.953Z,7.03
2023-01-08T16:51:21.394Z,7.04
2023-01-08T16:53:51.197Z,6.97
2023-01-08T16:56:21.325Z,6.84
2023-01-08T16:58:53.394Z,6.78
2023-01-08T17:01:23.991Z,6.68
2023-01-08T17:03:54.338Z,6.65
2023-01-08T17:06:27.931Z,6.61
2023-01-08T17:08:58.197Z,6.59
2023-01-08T17:11:28.889Z,6.59
2023-01-08T17:13:58.702Z,6.51
2023-01-08T17:16:29.688Z,6.52
2023-01-08T17:18:59.816Z,6.48
2023-01-08T17:21:33.723Z,6.50
2023-01-08T17:24:03.664Z,6.56
2023-01-08T17:26:34.239Z,6.50
2023-01-08T17:29:04.264Z,6.53
2023-01-08T17:31:40.383Z,6.49
2023-01-08T17:34:14.554Z,6.53
2023-01-08T17:36:47.019Z,6.49
2023-01-08T17:39:16.817Z,6.51
2023-01-08T17:41:59.161Z,6.50
2023-01-08T17:44:31.506Z,6.29
2023-01-08T17:47:01.358Z,6.36
2023-01-08T17:49:31.265Z,6.28
2023-01-08T17:52:04.249Z,6.38
2023-01-08T17:54:34.444Z,6.39
2023-01-08T17:57:04.719Z,6.27
2023-01-08T17:59:34.586Z,6.11
2023-01-08T18:02:04.638Z,6.13
2023-01-08T18:04:36.146Z,6.19
2023-01-08T18:07:09.047Z,6.13
2023-01-08T18:09:38.955Z,6.18
2023-01-08T18:12:09.657Z,6.10
2023-01-08T18:14:41.608Z,6.21
2023-01-08T18:17:12.099Z,6.17
2023-01-08T18:19:42.084Z,6.15
2023-01-08T18:22:15.481Z,6.19
2023-01-08T18:24:45.668Z,6.12
2023-01-08T18:27:15.646Z,6.19
2023-01-08T18:29:46.104Z,6.08
2023-01-08T18:32:17.394Z,6.11
2023-01-08T18:34:48.773Z,6.14
2023-01-08T18:37:23.241Z,6.24
2023-01-08T18:39:53.450Z,6.36
2023-01-08T18:42:30.888Z,6.16
2023-01-08T18:45:02.863Z,6.21
2023-01-08T18:47:33.355Z,6.31
2023-01-08T18:50:03.986Z,6.31
2023-01-08T18:52:36.567Z,6.34
2023-01-08T18:55:06.829Z,6.43
2023-01-08T18:57:36.770Z,6.44
2023-01-08T19:00:07.973Z,6.38
2023-01-08T19:02:37.931Z,6.33
2023-01-08T19:05:08.765Z,6.34
2023-01-08T19:07:41.582Z,6.35
2023-01-08T19:10:13.091Z,6.39
2023-01-08T19:12:43.069Z,6.42
2023-01-08T19:15:14.276Z,6.32
2023-01-08T19:17:44.139Z,6.32
2023-01-08T19:20:14.837Z,6.37
2023-01-08T19:22:47.348Z,6.42
2023-01-08T19:25:17.529Z,6.39
2023-01-08T19:27:48.084Z,6.42
2023-01-08T19:30:18.939Z,6.39
2023-01-08T19:32:49.024Z,6.36
2023-01-08T19:35:19.030Z,6.33
2023-01-08T19:37:52.075Z,5.97
2023-01-08T19:40:22.235Z,6.15
2023-01-08T19:43:04.591Z,6.23
2023-01-08T19:45:34.864Z,6.25
2023-01-08T19:48:04.707Z,6.33
2023-01-08T19:50:35.307Z,6.28
2023-01-08T19:53:08.600Z,6.24
2023-01-08T19:55:38.803Z,6.33
2023-01-08T19:58:08.791Z,6.27
2023-01-08T20:00:41.128Z,6.32
2023-01-08T20:03:11.336Z,6.31
2023-01-08T20:05:43.704Z,6.39
2023-01-08T20:08:16.094Z,6.37
2023-01-08T20:10:46.524Z,6.17
2023-01-08T20:13:16.490Z,6.29
2023-01-08T20:15:46.318Z,6.14
2023-01-08T20:18:16.385Z,6.16
2023-01-08T20:20:46.236Z,6.23
2023-01-08T20:23:20.352Z,6.18
2023-01-08T20:25:50.293Z,6.12
2023-01-08T20:28:20.469Z,6.16
2023-01-08T20:30:50.335Z,6.06
2023-01-08T20:33:20.551Z,6.04
2023-01-08T20:35:52.543Z,5.87
2023-01-08T20:38:25.877Z,5.85
2023-01-08T20:40:56.506Z,6.01
2023-01-08T20:43:26.927Z,5.99
2023-01-08T20:45:56.958Z,6.02
2023-01-08T20:48:28.495Z,5.90
2023-01-08T20:51:03.680Z,6.08
2023-01-08T20:53:39.256Z,5.95
2023-01-08T20:56:12.584Z,5.99
2023-01-08T20:58:44.656Z,5.84
2023-01-08T21:01:16.906Z,5.90
2023-01-08T21:03:48.790Z,5.73
2023-01-08T21:06:21.113Z,5.58
2023-01-08T21:08:55.441Z,5.77
2023-01-08T21:11:27.112Z,5.58
2023-01-08T21:13:58.177Z,5.62
2023-01-08T21:16:31.045Z,5.52
2023-01-08T21:19:01.763Z,5.58
2023-01-08T21:21:34.113Z,5.51
2023-01-08T21:24:11.262Z,5.53
2023-01-08T21:26:41.719Z,5.32
2023-01-08T21:29:13.166Z,5.53
2023-01-08T21:31:43.269Z,5.69
2023-01-08T21:34:13.997Z,5.56
2023-01-08T21:36:43.899Z,5.80
2023-01-08T21:39:16.753Z,5.57
2023-01-08T21:41:59.528Z,5.54
2023-01-08T21:44:42.100Z,5.76
2023-01-08T21:47:16.803Z,5.73
2023-01-08T21:49:48.103Z,5.77
2023-01-08T21:52:30.536Z,5.87
2023-01-08T21:55:03.496Z,5.72
2023-01-08T21:57:33.977Z,5.76
2023-01-08T22:00:03.876Z,5.74
2023-01-08T22:02:34.749Z,5.85
2023-01-08T22:05:04.613Z,5.82
2023-01-08T22:07:34.990Z,5.87
2023-01-08T22:10:09.257Z,5.91
2023-01-08T22:12:39.173Z,5.98
2023-01-08T22:15:10.645Z,5.97
2023-01-08T22:17:40.868Z,6.00
2023-01-08T22:20:12.603Z,5.99
2023-01-08T22:22:45.669Z,5.95
2023-01-08T22:25:18.289Z,5.80
2023-01-08T22:27:51.386Z,5.73
2023-01-08T22:30:21.856Z,5.68
2023-01-08T22:32:51.706Z,5.63
2023-01-08T22:35:21.563Z,5.65
2023-01-08T22:37:51.465Z,5.70
2023-01-08T22:40:23.971Z,5.63
2023-01-08T22:42:53.817Z,5.65
2023-01-08T22:45:23.673Z,5.67
2023-01-08T22:47:53.705Z,5.67
2023-01-08T22:50:23.868Z,5.72
2023-01-08T22:52:53.734Z,5.85
2023-01-08T22:55:26.451Z,5.97
2023-01-08T22:57:56.228Z,6.01
2023-01-08T23:00:26.159Z,5.83
2023-01-08T23:02:56.008Z,5.81
2023-01-08T23:05:26.041Z,5.66
2023-01-08T23:07:58.775Z,5.67
2023-01-08T23:10:32.717Z,5.87
2023-01-08T23:13:02.773Z,5.87
2023-01-08T23:15:32.664Z,5.91
2023-01-08T23:18:03.391Z,5.89
2023-01-08T23:20:33.247Z,5.86
2023-01-08T23:23:03.003Z,5.93
2023-01-08T23:25:36.398Z,5.92
2023-01-08T23:28:06.304Z,5.80
2023-01-08T23:30:36.246Z,5.85
2023-01-08T23:33:06.524Z,5.86
2023-01-08T23:35:36.428Z,5.94
2023-01-08T23:38:06.298Z,5.94
2023-01-08T23:40:39.130Z,5.91
2023-01-08T23:43:08.900Z,5.92
2023-01-08T23:45:39.560Z,5.90
2023-01-08T23:48:09.977Z,5.92
2023-01-08T23:50:40.018Z,5.92
2023-01-08T23:53:10.040Z,5.96
2023-01-08T23:55:42.396Z,5.94
2023-01-08T23:58:13.471Z,5.96
